Maersk Missouri — WAHV — position and weather

sailwx.info

Track history (hours):
 
Tides and Currents Weather Stations Pressure Air Temp Water Temp Dewpoint Dewpoint Depression Visibility Wind Speed Wind Dir Waves Ship Positions

Maersk Missouri

Owner: MAERSK LINE, LIMITED, Norfolk, VA. More information available from US FCC via Universal Licensing System and Coast Guard Vessel Documentation Center.

Last reported at 2016-Aug-30 00:00 UTC. Time now 2016-Aug-30 03:13 UTC.
Position N 23°18' W 085°30'.

Type: Cargo ship. MMSI: 369708000.

Wind from 360 at 15 knots

Waves 1.0 meters (3 feet), 3 second period

Barometer 1010.9 mb
Air temperature 29.0 ° C
Visibility: greater than 10.8 NM
Dewpoint 26.2 ° C
Water temperature 30.3 ° C

Date/timePositionNaut miles runAvg speedWind from/ knotsBaromVisibWave heightAir tempDewpointWater temp
2016-Aug-30 00:00N 23°18' W 085°30'62321.2 360 / 151010.910.8 1.029.026.230.3
2016-Aug-28 18:33N 29°27' W 094°51'1212.0
2016-Aug-28 17:34N 29°37' W 094°58'2 1.6
2016-Aug-28 16:19N 29°37' W 095°00'0 0.0
2016-Aug-28 15:17N 29°37' W 095°00'0 0.0
2016-Aug-28 14:23N 29°37' W 095°00'0 0.0
2016-Aug-28 13:30N 29°37' W 095°00'0 0.0
2016-Aug-28 11:16N 29°37' W 095°00'0 0.0
2016-Aug-28 09:33N 29°37' W 095°00'0 0.0
2016-Aug-28 06:26N 29°37' W 095°00'0 0.0
2016-Aug-28 05:32N 29°37' W 095°00'0 0.0
2016-Aug-28 04:25N 29°37' W 095°00'0 0.0
2016-Aug-28 03:31N 29°37' W 095°00'0 0.0
2016-Aug-28 01:14N 29°37' W 095°00'0 0.0
2016-Aug-28 00:33N 29°37' W 095°00'0 0.0
2016-Aug-27 23:25N 29°37' W 095°00'0 0.0
2016-Aug-27 21:08N 29°37' W 095°00'0 0.0
2016-Aug-27 20:24N 29°37' W 095°00'0 0.0
2016-Aug-27 19:33N 29°37' W 095°00'0 0.0
2016-Aug-27 18:22N 29°37' W 095°00'0 0.0
2016-Aug-27 16:32N 29°37' W 095°00'0 0.0
2016-Aug-27 15:21N 29°37' W 095°00'0 0.0
2016-Aug-27 14:22N 29°37' W 095°00'0 0.0
2016-Aug-27 11:06N 29°37' W 095°00'0 0.0
2016-Aug-27 10:33N 29°37' W 095°00'0 0.2
2016-Aug-27 09:33N 29°37' W 095°00'9 8.6
2016-Aug-27 08:33N 29°31' W 094°53'1312.6
2016-Aug-27 07:33N 29°21' W 094°45'81115.9
2016-Aug-25 04:33N 25°43' W 080°04'6 6.1
2016-Aug-25 03:31N 25°46' W 080°10'1 0.5
2016-Aug-25 02:32N 25°46' W 080°09'0 0.0
2016-Aug-25 01:30N 25°46' W 080°09'0 0.0
2016-Aug-25 00:33N 25°46' W 080°09'0 0.0
2016-Aug-24 23:31N 25°46' W 080°09'0 0.0
2016-Aug-24 22:32N 25°46' W 080°09'0 0.0
2016-Aug-24 21:32N 25°46' W 080°09'0 0.0
2016-Aug-24 20:33N 25°46' W 080°09'0 0.0
2016-Aug-24 19:31N 25°46' W 080°09'0 0.0
2016-Aug-24 18:32N 25°46' W 080°09'0 0.0
2016-Aug-24 17:32N 25°46' W 080°09'0 0.0
2016-Aug-24 16:33N 25°46' W 080°09'0 0.0
2016-Aug-24 15:33N 25°46' W 080°09'0 0.0
2016-Aug-24 14:31N 25°46' W 080°09'0 0.0
2016-Aug-24 13:32N 25°46' W 080°09'0 0.0
2016-Aug-24 12:33N 25°46' W 080°09'0 0.0
2016-Aug-24 11:33N 25°46' W 080°09'0 0.0
2016-Aug-24 10:31N 25°46' W 080°09'2 1.8
2016-Aug-24 09:33N 25°46' W 080°08'8 7.6
2016-Aug-24 08:33N 25°49' W 080°00'1514.9
2016-Aug-24 07:33N 26°04' W 079°60'1515.3
2016-Aug-24 06:33N 26°20' W 079°59'3215.9
2016-Aug-24 04:33N 26°51' W 079°58'1515.0
2016-Aug-24 03:33N 27°06' W 079°59'27716.9
2016-Aug-23 11:07N 31°44' W 079°55'1617.4
2016-Aug-23 10:11N 31°59' W 079°48'139 4.5
2016-Aug-22 03:31N 33°25' W 077°39'1010.2
2016-Aug-22 02:33N 33°29' W 077°28'1210.2
2016-Aug-22 01:21N 33°37' W 077°17'20311.4
2016-Aug-21 07:30N 36°46' W 075°44'1515.8
2016-Aug-21 06:33N 36°56' W 075°58'1615.1
2016-Aug-21 05:32N 37°00' W 076°17'8 8.6
2016-Aug-21 04:34N 36°52' W 076°21'0 0.2
2016-Aug-21 03:31N 36°53' W 076°21'0 0.0
2016-Aug-21 02:33N 36°53' W 076°21'0 0.0
2016-Aug-21 01:28N 36°53' W 076°21'0 0.0
2016-Aug-21 00:30N 36°53' W 076°21'0 0.0
2016-Aug-20 23:30N 36°53' W 076°21'0 0.0
2016-Aug-20 22:31N 36°53' W 076°21'0 0.0
2016-Aug-20 21:33N 36°53' W 076°21'5 5.2
2016-Aug-20 20:34N 36°58' W 076°20'1312.9
2016-Aug-20 19:33N 36°58' W 076°04'28 3.8
2016-Aug-20 12:09N 36°46' W 075°33'  
Track history (hours):
 
Tides and Currents Weather Stations Pressure Air Temp Water Temp Dewpoint Dewpoint Depression Visibility Wind Speed Wind Dir Waves Ship Positions

Maersk Missouri

Owner: MAERSK LINE, LIMITED, Norfolk, VA. More information available from US FCC via Universal Licensing System and Coast Guard Vessel Documentation Center.

Last reported at 2016-Aug-30 00:00 UTC. Time now 2016-Aug-30 03:13 UTC.
Position N 23°18' W 085°30'.

Type: Cargo ship. MMSI: 369708000.

Wind from 360 at 15 knots

Waves 1.0 meters (3 feet), 3 second period

Barometer 1010.9 mb
Air temperature 29.0 ° C
Visibility: greater than 10.8 NM
Dewpoint 26.2 ° C
Water temperature 30.3 ° C

Date/timePositionNaut miles runAvg speedWind from/ knotsBaromVisibWave heightAir tempDewpointWater temp
2016-Aug-30 00:00N 23°18' W 085°30'62321.2 360 / 151010.910.8 1.029.026.230.3
2016-Aug-28 18:33N 29°27' W 094°51'1212.0
2016-Aug-28 17:34N 29°37' W 094°58'2 1.6
2016-Aug-28 16:19N 29°37' W 095°00'0 0.0
2016-Aug-28 15:17N 29°37' W 095°00'0 0.0
2016-Aug-28 14:23N 29°37' W 095°00'0 0.0
2016-Aug-28 13:30N 29°37' W 095°00'0 0.0
2016-Aug-28 11:16N 29°37' W 095°00'0 0.0
2016-Aug-28 09:33N 29°37' W 095°00'0 0.0
2016-Aug-28 06:26N 29°37' W 095°00'0 0.0
2016-Aug-28 05:32N 29°37' W 095°00'0 0.0
2016-Aug-28 04:25N 29°37' W 095°00'0 0.0
2016-Aug-28 03:31N 29°37' W 095°00'0 0.0
2016-Aug-28 01:14N 29°37' W 095°00'0 0.0
2016-Aug-28 00:33N 29°37' W 095°00'0 0.0
2016-Aug-27 23:25N 29°37' W 095°00'0 0.0
2016-Aug-27 21:08N 29°37' W 095°00'0 0.0
2016-Aug-27 20:24N 29°37' W 095°00'0 0.0
2016-Aug-27 19:33N 29°37' W 095°00'0 0.0
2016-Aug-27 18:22N 29°37' W 095°00'0 0.0
2016-Aug-27 16:32N 29°37' W 095°00'0 0.0
2016-Aug-27 15:21N 29°37' W 095°00'0 0.0
2016-Aug-27 14:22N 29°37' W 095°00'0 0.0
2016-Aug-27 11:06N 29°37' W 095°00'0 0.0
2016-Aug-27 10:33N 29°37' W 095°00'0 0.2
2016-Aug-27 09:33N 29°37' W 095°00'9 8.6
2016-Aug-27 08:33N 29°31' W 094°53'1312.6
2016-Aug-27 07:33N 29°21' W 094°45'81115.9
2016-Aug-25 04:33N 25°43' W 080°04'6 6.1
2016-Aug-25 03:31N 25°46' W 080°10'1 0.5
2016-Aug-25 02:32N 25°46' W 080°09'0 0.0
2016-Aug-25 01:30N 25°46' W 080°09'0 0.0
2016-Aug-25 00:33N 25°46' W 080°09'0 0.0
2016-Aug-24 23:31N 25°46' W 080°09'0 0.0
2016-Aug-24 22:32N 25°46' W 080°09'0 0.0
2016-Aug-24 21:32N 25°46' W 080°09'0 0.0
2016-Aug-24 20:33N 25°46' W 080°09'0 0.0
2016-Aug-24 19:31N 25°46' W 080°09'0 0.0
2016-Aug-24 18:32N 25°46' W 080°09'0 0.0
2016-Aug-24 17:32N 25°46' W 080°09'0 0.0
2016-Aug-24 16:33N 25°46' W 080°09'0 0.0
2016-Aug-24 15:33N 25°46' W 080°09'0 0.0
2016-Aug-24 14:31N 25°46' W 080°09'0 0.0
2016-Aug-24 13:32N 25°46' W 080°09'0 0.0
2016-Aug-24 12:33N 25°46' W 080°09'0 0.0
2016-Aug-24 11:33N 25°46' W 080°09'0 0.0
2016-Aug-24 10:31N 25°46' W 080°09'2 1.8
2016-Aug-24 09:33N 25°46' W 080°08'8 7.6
2016-Aug-24 08:33N 25°49' W 080°00'1514.9
2016-Aug-24 07:33N 26°04' W 079°60'1515.3
2016-Aug-24 06:33N 26°20' W 079°59'3215.9
2016-Aug-24 04:33N 26°51' W 079°58'1515.0
2016-Aug-24 03:33N 27°06' W 079°59'27716.9
2016-Aug-23 11:07N 31°44' W 079°55'1617.4
2016-Aug-23 10:11N 31°59' W 079°48'139 4.5
2016-Aug-22 03:31N 33°25' W 077°39'1010.2
2016-Aug-22 02:33N 33°29' W 077°28'1210.2
2016-Aug-22 01:21N 33°37' W 077°17'20311.4
2016-Aug-21 07:30N 36°46' W 075°44'1515.8
2016-Aug-21 06:33N 36°56' W 075°58'1615.1
2016-Aug-21 05:32N 37°00' W 076°17'8 8.6
2016-Aug-21 04:34N 36°52' W 076°21'0 0.2
2016-Aug-21 03:31N 36°53' W 076°21'0 0.0
2016-Aug-21 02:33N 36°53' W 076°21'0 0.0
2016-Aug-21 01:28N 36°53' W 076°21'0 0.0
2016-Aug-21 00:30N 36°53' W 076°21'0 0.0
2016-Aug-20 23:30N 36°53' W 076°21'0 0.0
2016-Aug-20 22:31N 36°53' W 076°21'0 0.0
2016-Aug-20 21:33N 36°53' W 076°21'5 5.2
2016-Aug-20 20:34N 36°58' W 076°20'1312.9
2016-Aug-20 19:33N 36°58' W 076°04'28 3.8
2016-Aug-20 12:09N 36°46' W 075°33'  

Dump ship's entire track history